Gladiator — A8MJ5 — position and weather

sailwx.info

Track history (hours):
 
Tides and Currents Weather Stations Pressure Air Temp Water Temp Dewpoint Dewpoint Depression Visibility Wind Speed Wind Dir Waves Ship Positions

Gladiator

Last reported at 2017-Oct-06 13:11 UTC. Time now 2017-Nov-19 15:38 UTC.
Position N 26°19' W 116°51'.
Warning: this ship's position is 44 days out of date.

Length 274 m; draft 9.5 m.

Type: Tanker. MMSI: 636013351.

Date/timePositionNaut miles runAvg speedWind from/ knotsBaromVisibWave heightAir tempDewpointWater temp
2017-Oct-06 13:11N 26°19' W 116°51'2211.7
2017-Oct-06 11:18N 26°33' W 117°10'411.9
2017-Oct-06 11:00N 26°35' W 117°13'611.8
2017-Oct-06 10:28N 26°39' W 117°19'612.0
2017-Oct-06 10:01N 26°42' W 117°23'612.0
2017-Oct-06 09:30N 26°46' W 117°29'5112.1
2017-Oct-06 05:17N 27°18' W 118°14'1611.9
2017-Oct-06 03:57N 27°28' W 118°28'512.2
2017-Oct-06 03:30N 27°31' W 118°32'3511.8
2017-Oct-06 00:34N 27°53' W 119°03'411.8
2017-Oct-06 00:16N 27°55' W 119°06'311.9
2017-Oct-06 00:00N 27°57' W 119°09'611.9
2017-Oct-05 23:30N 28°01' W 119°14'611.8
2017-Oct-05 23:00N 28°04' W 119°19'611.9
2017-Oct-05 22:30N 28°08' W 119°25'712.1
2017-Oct-05 21:55N 28°12' W 119°31'512.1
2017-Oct-05 21:30N 28°15' W 119°35'1111.9
2017-Oct-05 20:37N 28°22' W 119°45'112.0
2017-Oct-05 20:30N 28°23' W 119°46'612.1
2017-Oct-05 20:00N 28°27' W 119°51'612.1
2017-Oct-05 19:29N 28°31' W 119°57'612.0
2017-Oct-05 19:00N 28°34' W 120°02'612.0
2017-Oct-05 18:31N 28°38' W 120°08'611.9
2017-Oct-05 17:58N 28°42' W 120°13'711.9
2017-Oct-05 17:24N 28°46' W 120°19'511.9
2017-Oct-05 17:00N 28°49' W 120°24'1811.8
2017-Oct-05 15:30N 29°00' W 120°39'611.7
2017-Oct-05 15:00N 29°04' W 120°45'611.7
2017-Oct-05 14:30N 29°07' W 120°50'611.8
2017-Oct-05 14:00N 29°11' W 120°55'711.9
2017-Oct-05 13:26N 29°15' W 121°01'511.9
2017-Oct-05 13:00N 29°18' W 121°06'611.8
2017-Oct-05 12:30N 29°22' W 121°11'611.9
2017-Oct-05 12:00N 29°26' W 121°17'911.9
2017-Oct-05 11:15N 29°31' W 121°25'311.9
2017-Oct-05 11:00N 29°33' W 121°27'611.9
2017-Oct-05 10:30N 29°37' W 121°33'612.1
2017-Oct-05 10:00N 29°41' W 121°38'612.0
2017-Oct-05 09:29N 29°44' W 121°44'612.0
2017-Oct-05 08:58N 29°48' W 121°49'612.0
2017-Oct-05 08:30N 29°52' W 121°54'611.7
2017-Oct-05 08:00N 29°55' W 121°60'611.8
2017-Oct-05 07:30N 29°59' W 122°05'611.8
2017-Oct-05 07:00N 30°03' W 122°10'611.9
2017-Oct-05 06:30N 30°06' W 122°16'611.9
2017-Oct-05 06:00N 30°10' W 122°21'611.8
2017-Oct-05 05:30N 30°14' W 122°26'611.8
2017-Oct-05 05:01N 30°17' W 122°32'1111.8
2017-Oct-05 04:06N 30°24' W 122°41'111.7
2017-Oct-05 04:01N 30°25' W 122°42'612.0
2017-Oct-05 03:28N 30°29' W 122°48'612.0
2017-Oct-05 03:00N 30°33' W 122°53'612.1
2017-Oct-05 02:31N 30°38' W 122°57'912.2
2017-Oct-05 01:48N 30°44' W 123°03'412.2
2017-Oct-05 01:27N 30°48' W 123°06'612.3
2017-Oct-05 01:00N 30°52' W 123°10'612.3
2017-Oct-05 00:30N 30°57' W 123°15'712.0
2017-Oct-04 23:56N 31°02' W 123°20'512.0
2017-Oct-04 23:30N 31°06' W 123°23'1012.2
2017-Oct-04 22:42N 31°14' W 123°30'412.2
2017-Oct-04 22:21N 31°18' W 123°33'411.9
2017-Oct-04 22:00N 31°21' W 123°36'712.1
2017-Oct-04 21:27N 31°26' W 123°41'511.9
2017-Oct-04 21:00N 31°30' W 123°45'611.7
2017-Oct-04 20:30N 31°35' W 123°49'611.7
2017-Oct-04 19:59N 31°40' W 123°54'511.5
2017-Oct-04 19:31N 31°44' W 123°58'711.6
2017-Oct-04 18:52N 31°50' W 124°03'5911.6
2017-Oct-04 13:48N 32°37' W 124°44'3712.0
2017-Oct-04 10:42N 33°12' W 125°02'26710.4
2017-Oct-03 08:53N 37°24' W 123°16'512.0
2017-Oct-03 08:30N 37°28' W 123°12'611.4
2017-Oct-03 08:01N 37°32' W 123°07'510.4
2017-Oct-03 07:31N 37°35' W 123°02'510.1
2017-Oct-03 07:00N 37°38' W 122°57'510.3
2017-Oct-03 06:30N 37°41' W 122°51'510.2
2017-Oct-03 06:00N 37°44' W 122°46'4 8.8
2017-Oct-03 05:30N 37°46' W 122°41'510.6
2017-Oct-03 05:00N 37°47' W 122°34'611.8
2017-Oct-03 04:30N 37°50' W 122°28'4 7.7
2017-Oct-03 04:00N 37°53' W 122°26'510.5
2017-Oct-03 03:30N 37°59' W 122°26'510.0
2017-Oct-03 03:01N 38°02' W 122°22'4 8.2
2017-Oct-03 02:30N 38°04' W 122°17'1 1.7
2017-Oct-03 02:01N 38°03' W 122°16'0 0.0
2017-Oct-03 01:30N 38°03' W 122°16'0 0.0
2017-Oct-03 01:00N 38°03' W 122°16'0 0.0
2017-Oct-03 00:30N 38°03' W 122°16'0 0.0
2017-Oct-03 00:00N 38°03' W 122°16'0 0.0
2017-Oct-02 23:30N 38°03' W 122°16'0 0.0
2017-Oct-02 23:00N 38°03' W 122°16'0 0.0
2017-Oct-02 22:30N 38°03' W 122°16'0 0.0
2017-Oct-02 22:00N 38°03' W 122°16'0 0.0
2017-Oct-02 21:30N 38°03' W 122°16'0 0.0
2017-Oct-02 20:54N 38°03' W 122°16'0 0.0
2017-Oct-02 20:30N 38°03' W 122°16'0 0.0
2017-Oct-02 19:18N 38°03' W 122°16'0 0.0
2017-Oct-02 18:54N 38°03' W 122°16'0 0.0
2017-Oct-02 18:30N 38°03' W 122°16'0 0.0
2017-Oct-02 17:54N 38°03' W 122°16'0 0.0
2017-Oct-02 16:42N 38°03' W 122°16'0 0.0
2017-Oct-02 16:30N 38°03' W 122°16'0 0.0
2017-Oct-02 15:36N 38°03' W 122°16'0 0.0
2017-Oct-02 15:18N 38°03' W 122°16'0 0.0
2017-Oct-02 14:54N 38°03' W 122°16'0 0.0
2017-Oct-02 14:30N 38°03' W 122°16'0 0.0
2017-Oct-02 14:00N 38°03' W 122°16'0 0.0
2017-Oct-02 13:27N 38°03' W 122°16'0 0.0
2017-Oct-02 13:00N 38°03' W 122°16'0 0.0
2017-Oct-02 12:30N 38°03' W 122°16'0 0.0
2017-Oct-02 12:00N 38°03' W 122°16'0 0.0
2017-Oct-02 11:30N 38°03' W 122°16'0 0.0
2017-Oct-02 11:00N 38°03' W 122°16'0 0.0
2017-Oct-02 10:30N 38°03' W 122°16'0 0.0
2017-Oct-02 10:00N 38°03' W 122°16'0 0.0
2017-Oct-02 09:30N 38°03' W 122°16'0 0.0
2017-Oct-02 09:00N 38°03' W 122°16'0 0.0
2017-Oct-02 08:30N 38°03' W 122°16'0 0.0
2017-Oct-02 08:00N 38°03' W 122°16'0 0.0
2017-Oct-02 07:30N 38°03' W 122°16'0 0.0
2017-Oct-02 07:00N 38°03' W 122°16'0 0.0
2017-Oct-02 06:30N 38°03' W 122°16'0 0.0
2017-Oct-02 06:00N 38°03' W 122°16'0 0.0
2017-Oct-02 05:30N 38°03' W 122°16'0 0.0
2017-Oct-02 05:00N 38°03' W 122°16'0 0.0
2017-Oct-02 04:30N 38°03' W 122°16'0 0.0
2017-Oct-02 04:00N 38°03' W 122°16'0 0.1
2017-Oct-02 03:27N 38°03' W 122°16'2 3.7
2017-Oct-02 03:00N 38°04' W 122°14'4 6.6
2017-Oct-02 02:26N 38°02' W 122°09'103 2.1
2017-Sep-30 01:56N 36°20' W 122°26'5 9.6
2017-Sep-30 01:25N 36°15' W 122°23'4 8.4
2017-Sep-30 01:00N 36°12' W 122°21'1 2.3
2017-Sep-30 00:27N 36°11' W 122°21'30 9.1
2017-Sep-29 21:06N 35°42' W 122°11'110.4
2017-Sep-29 21:00N 35°41' W 122°11'510.7
2017-Sep-29 20:30N 35°36' W 122°09'510.7
2017-Sep-29 20:00N 35°31' W 122°07'611.0
2017-Sep-29 19:30N 35°25' W 122°05'611.1
2017-Sep-29 18:59N 35°20' W 122°03'611.4
2017-Sep-29 18:29N 35°14' W 122°01'511.1
2017-Sep-29 18:00N 35°09' W 121°59'510.7
2017-Sep-29 17:30N 35°04' W 121°57'510.5
2017-Sep-29 17:00N 34°59' W 121°54'710.3
2017-Sep-29 16:18N 34°53' W 121°50'3 9.8
2017-Sep-29 16:00N 34°50' W 121°49'510.4
2017-Sep-29 15:30N 34°45' W 121°49'510.4
2017-Sep-29 15:01N 34°40' W 121°48'510.7
2017-Sep-29 14:31N 34°35' W 121°46'611.6
2017-Sep-29 14:01N 34°29' W 121°44'611.7
2017-Sep-29 13:31N 34°24' W 121°41'611.2
2017-Sep-29 13:00N 34°19' W 121°38'611.6
2017-Sep-29 12:29N 34°15' W 121°33'611.7
2017-Sep-29 11:58N 34°11' W 121°27'511.4
2017-Sep-29 11:30N 34°07' W 121°22'611.4
2017-Sep-29 11:00N 34°04' W 121°17'611.3
2017-Sep-29 10:30N 34°00' W 121°11'611.5
2017-Sep-29 10:01N 33°57' W 121°06'611.4
2017-Sep-29 09:29N 33°53' W 121°01'611.5
2017-Sep-29 09:00N 33°49' W 120°56'611.6
2017-Sep-29 08:31N 33°45' W 120°51'611.5
2017-Sep-29 08:00N 33°41' W 120°46'611.2
2017-Sep-29 07:31N 33°38' W 120°40'611.8
2017-Sep-29 07:01N 33°38' W 120°33'612.2
2017-Sep-29 06:30N 33°38' W 120°26'612.2
2017-Sep-29 06:01N 33°38' W 120°18'611.7
2017-Sep-29 05:31N 33°38' W 120°11'611.5
2017-Sep-29 05:01N 33°38' W 120°05'611.7
2017-Sep-29 04:30N 33°38' W 119°57'611.7
2017-Sep-29 03:59N 33°39' W 119°50'612.1
2017-Sep-29 03:31N 33°39' W 119°43'612.0
2017-Sep-29 03:01N 33°38' W 119°36'611.8
2017-Sep-29 02:31N 33°38' W 119°29'611.8
2017-Sep-29 02:00N 33°38' W 119°22'611.9
2017-Sep-29 01:31N 33°38' W 119°15'612.1
2017-Sep-29 01:01N 33°38' W 119°08'612.0
2017-Sep-29 00:30N 33°38' W 119°00'611.9
2017-Sep-29 00:01N 33°37' W 118°53'611.8
2017-Sep-28 23:31N 33°36' W 118°47'612.0
2017-Sep-28 23:01N 33°34' W 118°40'612.0
2017-Sep-28 22:30N 33°33' W 118°33'611.5
2017-Sep-28 22:01N 33°33' W 118°26'611.2
2017-Sep-28 21:31N 33°34' W 118°19'4 8.8
2017-Sep-28 21:00N 33°37' W 118°15'4 7.7
2017-Sep-28 20:31N 33°40' W 118°12'4 7.1
2017-Sep-28 20:01N 33°43' W 118°11'3 5.0
2017-Sep-28 19:30N 33°45' W 118°13'0 0.9
2017-Sep-28 19:01N 33°45' W 118°13'0 0.0
2017-Sep-28 18:31N 33°45' W 118°13'0 0.0
2017-Sep-28 17:55N 33°45' W 118°13'0 0.0
2017-Sep-28 17:28N 33°45' W 118°13'0 0.0
2017-Sep-28 16:58N 33°45' W 118°13'0 0.0
2017-Sep-28 16:25N 33°45' W 118°13'0 0.0
2017-Sep-28 15:58N 33°45' W 118°13'0 0.0
2017-Sep-28 15:28N 33°45' W 118°13'0 0.0
2017-Sep-28 14:55N 33°45' W 118°13'0 0.0
2017-Sep-28 14:22N 33°45' W 118°13'0 0.0
2017-Sep-28 13:58N 33°45' W 118°13'0 0.0
2017-Sep-28 13:25N 33°45' W 118°13'0 0.0
2017-Sep-28 12:58N 33°45' W 118°13'0 0.0
2017-Sep-28 12:28N 33°45' W 118°13'0 0.0
2017-Sep-28 11:58N 33°45' W 118°13'0 0.0
2017-Sep-28 11:28N 33°45' W 118°13'0 0.0
2017-Sep-28 10:55N 33°45' W 118°13'0 0.0
2017-Sep-28 10:28N 33°45' W 118°13'0 0.0
2017-Sep-28 09:58N 33°45' W 118°13'0 0.0
2017-Sep-28 09:28N 33°45' W 118°13'0 0.0
2017-Sep-28 08:55N 33°45' W 118°13'0 0.0
2017-Sep-28 08:28N 33°45' W 118°13'0 0.0
2017-Sep-28 07:58N 33°45' W 118°13'0 0.0
2017-Sep-28 07:28N 33°45' W 118°13'0 0.0
2017-Sep-28 06:55N 33°45' W 118°13'0 0.0
2017-Sep-28 06:28N 33°45' W 118°13'0 0.0
2017-Sep-28 05:49N 33°45' W 118°13'0 0.0
2017-Sep-28 05:22N 33°45' W 118°13'0 0.0
2017-Sep-28 04:37N 33°45' W 118°13'0 0.0
2017-Sep-28 04:28N 33°45' W 118°13'0 0.0
2017-Sep-28 03:58N 33°45' W 118°13'0 0.0
2017-Sep-28 03:19N 33°45' W 118°13'0 0.0
2017-Sep-28 02:55N 33°45' W 118°13'0 0.0
2017-Sep-28 02:19N 33°45' W 118°13'0 0.0
2017-Sep-28 01:55N 33°45' W 118°13'0 0.0
2017-Sep-28 01:25N 33°45' W 118°13'0 0.0
2017-Sep-28 00:55N 33°45' W 118°13'0 0.0
2017-Sep-28 00:25N 33°45' W 118°13'0 0.0
2017-Sep-27 23:55N 33°45' W 118°13'0 0.0
2017-Sep-27 23:13N 33°45' W 118°13'0 0.0
2017-Sep-27 22:55N 33°45' W 118°13'0 0.0
2017-Sep-27 22:19N 33°45' W 118°13'0 0.0
2017-Sep-27 22:00N 33°45' W 118°13'1 1.0
2017-Sep-27 21:30N 33°45' W 118°13'2 4.6
2017-Sep-27 21:00N 33°43' W 118°11'3 6.1
2017-Sep-27 20:30N 33°41' W 118°09'2 3.5
2017-Sep-27 20:00N 33°41' W 118°07'0 0.2
2017-Sep-27 19:28N 33°41' W 118°07'0 0.1
2017-Sep-27 18:55N 33°41' W 118°07'0 0.0
2017-Sep-27 18:28N 33°41' W 118°07'0 0.0
2017-Sep-27 17:58N 33°41' W 118°07'0 0.0
2017-Sep-27 17:28N 33°41' W 118°07'0 0.0
2017-Sep-27 16:58N 33°41' W 118°07'0 0.0
2017-Sep-27 16:25N 33°41' W 118°07'0 0.1
2017-Sep-27 15:43N 33°41' W 118°07'0 0.0
2017-Sep-27 15:28N 33°41' W 118°07'0 0.0
2017-Sep-27 14:58N 33°41' W 118°07'0 0.0
2017-Sep-27 14:28N 33°41' W 118°07'0 0.0
2017-Sep-27 13:58N 33°41' W 118°07'0 0.0
2017-Sep-27 13:28N 33°41' W 118°07'0 0.0
2017-Sep-27 12:58N 33°41' W 118°07'0 0.0
2017-Sep-27 12:28N 33°41' W 118°07'0 0.0
2017-Sep-27 11:58N 33°41' W 118°07'0 0.1
2017-Sep-27 11:28N 33°41' W 118°07'0 0.1
2017-Sep-27 10:58N 33°41' W 118°07'0 0.0
2017-Sep-27 10:28N 33°41' W 118°07'0 0.0
2017-Sep-27 09:58N 33°41' W 118°07'0 0.0
2017-Sep-27 09:28N 33°41' W 118°07'0 0.0
2017-Sep-27 08:58N 33°41' W 118°07'0 0.0
2017-Sep-27 08:28N 33°41' W 118°07'0 0.0
2017-Sep-27 07:58N 33°41' W 118°07'0 0.0
2017-Sep-27 07:25N 33°41' W 118°07'0 0.0
2017-Sep-27 06:58N 33°41' W 118°07'0 0.0
2017-Sep-27 06:28N 33°41' W 118°07'0 0.0
2017-Sep-27 05:58N 33°41' W 118°07'0 0.0
2017-Sep-27 05:28N 33°41' W 118°07'0 0.0
2017-Sep-27 04:58N 33°41' W 118°07'0 0.0
2017-Sep-27 04:28N 33°41' W 118°07'0 0.1
2017-Sep-27 03:58N 33°41' W 118°07'0 0.0
2017-Sep-27 03:28N 33°41' W 118°07'0 0.0
2017-Sep-27 02:58N 33°41' W 118°07'0 0.1
2017-Sep-27 02:28N 33°41' W 118°07'0 0.0
2017-Sep-27 01:58N 33°41' W 118°07'0 0.1
2017-Sep-27 01:25N 33°41' W 118°07'0 0.1
2017-Sep-27 00:58N 33°41' W 118°07'0 0.0
2017-Sep-27 00:28N 33°41' W 118°07'0 0.0
2017-Sep-26 23:58N 33°41' W 118°07'0 0.0
2017-Sep-26 23:28N 33°41' W 118°07'0 0.1
2017-Sep-26 22:58N 33°41' W 118°07'0 0.1
2017-Sep-26 22:22N 33°41' W 118°07'0 0.0
2017-Sep-26 21:58N 33°41' W 118°07'0 0.0
2017-Sep-26 21:28N 33°41' W 118°07'0 0.1
2017-Sep-26 20:58N 33°41' W 118°07'0 0.0
2017-Sep-26 20:25N 33°41' W 118°07'0 0.0
2017-Sep-26 19:58N 33°41' W 118°07'0 0.0
2017-Sep-26 19:28N 33°41' W 118°07'0 0.1
2017-Sep-26 18:55N 33°41' W 118°07'0 0.0
2017-Sep-26 18:28N 33°41' W 118°07'0 0.0
2017-Sep-26 17:58N 33°41' W 118°07'0 0.0
2017-Sep-26 17:28N 33°41' W 118°07'0 0.0
2017-Sep-26 16:58N 33°41' W 118°07'0 0.0
2017-Sep-26 16:28N 33°41' W 118°07'0 0.0
2017-Sep-26 15:58N 33°41' W 118°07'0 0.0
2017-Sep-26 15:28N 33°41' W 118°07'0 0.0
2017-Sep-26 14:58N 33°41' W 118°07'0 0.0
2017-Sep-26 14:28N 33°41' W 118°07'0 0.0
2017-Sep-26 13:58N 33°41' W 118°07'0 0.0
2017-Sep-26 13:22N 33°41' W 118°07'  
Track history (hours):
 
Tides and Currents Weather Stations Pressure Air Temp Water Temp Dewpoint Dewpoint Depression Visibility Wind Speed Wind Dir Waves Ship Positions

Gladiator

Last reported at 2017-Oct-06 13:11 UTC. Time now 2017-Nov-19 15:38 UTC.
Position N 26°19' W 116°51'.
Warning: this ship's position is 44 days out of date.

Length 274 m; draft 9.5 m.

Type: Tanker. MMSI: 636013351.

Date/timePositionNaut miles runAvg speedWind from/ knotsBaromVisibWave heightAir tempDewpointWater temp
2017-Oct-06 13:11N 26°19' W 116°51'2211.7
2017-Oct-06 11:18N 26°33' W 117°10'411.9
2017-Oct-06 11:00N 26°35' W 117°13'611.8
2017-Oct-06 10:28N 26°39' W 117°19'612.0
2017-Oct-06 10:01N 26°42' W 117°23'612.0
2017-Oct-06 09:30N 26°46' W 117°29'5112.1
2017-Oct-06 05:17N 27°18' W 118°14'1611.9
2017-Oct-06 03:57N 27°28' W 118°28'512.2
2017-Oct-06 03:30N 27°31' W 118°32'3511.8
2017-Oct-06 00:34N 27°53' W 119°03'411.8
2017-Oct-06 00:16N 27°55' W 119°06'311.9
2017-Oct-06 00:00N 27°57' W 119°09'611.9
2017-Oct-05 23:30N 28°01' W 119°14'611.8
2017-Oct-05 23:00N 28°04' W 119°19'611.9
2017-Oct-05 22:30N 28°08' W 119°25'712.1
2017-Oct-05 21:55N 28°12' W 119°31'512.1
2017-Oct-05 21:30N 28°15' W 119°35'1111.9
2017-Oct-05 20:37N 28°22' W 119°45'112.0
2017-Oct-05 20:30N 28°23' W 119°46'612.1
2017-Oct-05 20:00N 28°27' W 119°51'612.1
2017-Oct-05 19:29N 28°31' W 119°57'612.0
2017-Oct-05 19:00N 28°34' W 120°02'612.0
2017-Oct-05 18:31N 28°38' W 120°08'611.9
2017-Oct-05 17:58N 28°42' W 120°13'711.9
2017-Oct-05 17:24N 28°46' W 120°19'511.9
2017-Oct-05 17:00N 28°49' W 120°24'1811.8
2017-Oct-05 15:30N 29°00' W 120°39'611.7
2017-Oct-05 15:00N 29°04' W 120°45'611.7
2017-Oct-05 14:30N 29°07' W 120°50'611.8
2017-Oct-05 14:00N 29°11' W 120°55'711.9
2017-Oct-05 13:26N 29°15' W 121°01'511.9
2017-Oct-05 13:00N 29°18' W 121°06'611.8
2017-Oct-05 12:30N 29°22' W 121°11'611.9
2017-Oct-05 12:00N 29°26' W 121°17'911.9
2017-Oct-05 11:15N 29°31' W 121°25'311.9
2017-Oct-05 11:00N 29°33' W 121°27'611.9
2017-Oct-05 10:30N 29°37' W 121°33'612.1
2017-Oct-05 10:00N 29°41' W 121°38'612.0
2017-Oct-05 09:29N 29°44' W 121°44'612.0
2017-Oct-05 08:58N 29°48' W 121°49'612.0
2017-Oct-05 08:30N 29°52' W 121°54'611.7
2017-Oct-05 08:00N 29°55' W 121°60'611.8
2017-Oct-05 07:30N 29°59' W 122°05'611.8
2017-Oct-05 07:00N 30°03' W 122°10'611.9
2017-Oct-05 06:30N 30°06' W 122°16'611.9
2017-Oct-05 06:00N 30°10' W 122°21'611.8
2017-Oct-05 05:30N 30°14' W 122°26'611.8
2017-Oct-05 05:01N 30°17' W 122°32'1111.8
2017-Oct-05 04:06N 30°24' W 122°41'111.7
2017-Oct-05 04:01N 30°25' W 122°42'612.0
2017-Oct-05 03:28N 30°29' W 122°48'612.0
2017-Oct-05 03:00N 30°33' W 122°53'612.1
2017-Oct-05 02:31N 30°38' W 122°57'912.2
2017-Oct-05 01:48N 30°44' W 123°03'412.2
2017-Oct-05 01:27N 30°48' W 123°06'612.3
2017-Oct-05 01:00N 30°52' W 123°10'612.3
2017-Oct-05 00:30N 30°57' W 123°15'712.0
2017-Oct-04 23:56N 31°02' W 123°20'512.0
2017-Oct-04 23:30N 31°06' W 123°23'1012.2
2017-Oct-04 22:42N 31°14' W 123°30'412.2
2017-Oct-04 22:21N 31°18' W 123°33'411.9
2017-Oct-04 22:00N 31°21' W 123°36'712.1
2017-Oct-04 21:27N 31°26' W 123°41'511.9
2017-Oct-04 21:00N 31°30' W 123°45'611.7
2017-Oct-04 20:30N 31°35' W 123°49'611.7
2017-Oct-04 19:59N 31°40' W 123°54'511.5
2017-Oct-04 19:31N 31°44' W 123°58'711.6
2017-Oct-04 18:52N 31°50' W 124°03'5911.6
2017-Oct-04 13:48N 32°37' W 124°44'3712.0
2017-Oct-04 10:42N 33°12' W 125°02'26710.4
2017-Oct-03 08:53N 37°24' W 123°16'512.0
2017-Oct-03 08:30N 37°28' W 123°12'611.4
2017-Oct-03 08:01N 37°32' W 123°07'510.4
2017-Oct-03 07:31N 37°35' W 123°02'510.1
2017-Oct-03 07:00N 37°38' W 122°57'510.3
2017-Oct-03 06:30N 37°41' W 122°51'510.2
2017-Oct-03 06:00N 37°44' W 122°46'4 8.8
2017-Oct-03 05:30N 37°46' W 122°41'510.6
2017-Oct-03 05:00N 37°47' W 122°34'611.8
2017-Oct-03 04:30N 37°50' W 122°28'4 7.7
2017-Oct-03 04:00N 37°53' W 122°26'510.5
2017-Oct-03 03:30N 37°59' W 122°26'510.0
2017-Oct-03 03:01N 38°02' W 122°22'4 8.2
2017-Oct-03 02:30N 38°04' W 122°17'1 1.7
2017-Oct-03 02:01N 38°03' W 122°16'0 0.0
2017-Oct-03 01:30N 38°03' W 122°16'0 0.0
2017-Oct-03 01:00N 38°03' W 122°16'0 0.0
2017-Oct-03 00:30N 38°03' W 122°16'0 0.0
2017-Oct-03 00:00N 38°03' W 122°16'0 0.0
2017-Oct-02 23:30N 38°03' W 122°16'0 0.0
2017-Oct-02 23:00N 38°03' W 122°16'0 0.0
2017-Oct-02 22:30N 38°03' W 122°16'0 0.0
2017-Oct-02 22:00N 38°03' W 122°16'0 0.0
2017-Oct-02 21:30N 38°03' W 122°16'0 0.0
2017-Oct-02 20:54N 38°03' W 122°16'0 0.0
2017-Oct-02 20:30N 38°03' W 122°16'0 0.0
2017-Oct-02 19:18N 38°03' W 122°16'0 0.0
2017-Oct-02 18:54N 38°03' W 122°16'0 0.0
2017-Oct-02 18:30N 38°03' W 122°16'0 0.0
2017-Oct-02 17:54N 38°03' W 122°16'0 0.0
2017-Oct-02 16:42N 38°03' W 122°16'0 0.0
2017-Oct-02 16:30N 38°03' W 122°16'0 0.0
2017-Oct-02 15:36N 38°03' W 122°16'0 0.0
2017-Oct-02 15:18N 38°03' W 122°16'0 0.0
2017-Oct-02 14:54N 38°03' W 122°16'0 0.0
2017-Oct-02 14:30N 38°03' W 122°16'0 0.0
2017-Oct-02 14:00N 38°03' W 122°16'0 0.0
2017-Oct-02 13:27N 38°03' W 122°16'0 0.0
2017-Oct-02 13:00N 38°03' W 122°16'0 0.0
2017-Oct-02 12:30N 38°03' W 122°16'0 0.0
2017-Oct-02 12:00N 38°03' W 122°16'0 0.0
2017-Oct-02 11:30N 38°03' W 122°16'0 0.0
2017-Oct-02 11:00N 38°03' W 122°16'0 0.0
2017-Oct-02 10:30N 38°03' W 122°16'0 0.0
2017-Oct-02 10:00N 38°03' W 122°16'0 0.0
2017-Oct-02 09:30N 38°03' W 122°16'0 0.0
2017-Oct-02 09:00N 38°03' W 122°16'0 0.0
2017-Oct-02 08:30N 38°03' W 122°16'0 0.0
2017-Oct-02 08:00N 38°03' W 122°16'0 0.0
2017-Oct-02 07:30N 38°03' W 122°16'0 0.0
2017-Oct-02 07:00N 38°03' W 122°16'0 0.0
2017-Oct-02 06:30N 38°03' W 122°16'0 0.0
2017-Oct-02 06:00N 38°03' W 122°16'0 0.0
2017-Oct-02 05:30N 38°03' W 122°16'0 0.0
2017-Oct-02 05:00N 38°03' W 122°16'0 0.0
2017-Oct-02 04:30N 38°03' W 122°16'0 0.0
2017-Oct-02 04:00N 38°03' W 122°16'0 0.1
2017-Oct-02 03:27N 38°03' W 122°16'2 3.7
2017-Oct-02 03:00N 38°04' W 122°14'4 6.6
2017-Oct-02 02:26N 38°02' W 122°09'103 2.1
2017-Sep-30 01:56N 36°20' W 122°26'5 9.6
2017-Sep-30 01:25N 36°15' W 122°23'4 8.4
2017-Sep-30 01:00N 36°12' W 122°21'1 2.3
2017-Sep-30 00:27N 36°11' W 122°21'30 9.1
2017-Sep-29 21:06N 35°42' W 122°11'110.4
2017-Sep-29 21:00N 35°41' W 122°11'510.7
2017-Sep-29 20:30N 35°36' W 122°09'510.7
2017-Sep-29 20:00N 35°31' W 122°07'611.0
2017-Sep-29 19:30N 35°25' W 122°05'611.1
2017-Sep-29 18:59N 35°20' W 122°03'611.4
2017-Sep-29 18:29N 35°14' W 122°01'511.1
2017-Sep-29 18:00N 35°09' W 121°59'510.7
2017-Sep-29 17:30N 35°04' W 121°57'510.5
2017-Sep-29 17:00N 34°59' W 121°54'710.3
2017-Sep-29 16:18N 34°53' W 121°50'3 9.8
2017-Sep-29 16:00N 34°50' W 121°49'510.4
2017-Sep-29 15:30N 34°45' W 121°49'510.4
2017-Sep-29 15:01N 34°40' W 121°48'510.7
2017-Sep-29 14:31N 34°35' W 121°46'611.6
2017-Sep-29 14:01N 34°29' W 121°44'611.7
2017-Sep-29 13:31N 34°24' W 121°41'611.2
2017-Sep-29 13:00N 34°19' W 121°38'611.6
2017-Sep-29 12:29N 34°15' W 121°33'611.7
2017-Sep-29 11:58N 34°11' W 121°27'511.4
2017-Sep-29 11:30N 34°07' W 121°22'611.4
2017-Sep-29 11:00N 34°04' W 121°17'611.3
2017-Sep-29 10:30N 34°00' W 121°11'611.5
2017-Sep-29 10:01N 33°57' W 121°06'611.4
2017-Sep-29 09:29N 33°53' W 121°01'611.5
2017-Sep-29 09:00N 33°49' W 120°56'611.6
2017-Sep-29 08:31N 33°45' W 120°51'611.5
2017-Sep-29 08:00N 33°41' W 120°46'611.2
2017-Sep-29 07:31N 33°38' W 120°40'611.8
2017-Sep-29 07:01N 33°38' W 120°33'612.2
2017-Sep-29 06:30N 33°38' W 120°26'612.2
2017-Sep-29 06:01N 33°38' W 120°18'611.7
2017-Sep-29 05:31N 33°38' W 120°11'611.5
2017-Sep-29 05:01N 33°38' W 120°05'611.7
2017-Sep-29 04:30N 33°38' W 119°57'611.7
2017-Sep-29 03:59N 33°39' W 119°50'612.1
2017-Sep-29 03:31N 33°39' W 119°43'612.0
2017-Sep-29 03:01N 33°38' W 119°36'611.8
2017-Sep-29 02:31N 33°38' W 119°29'611.8
2017-Sep-29 02:00N 33°38' W 119°22'611.9
2017-Sep-29 01:31N 33°38' W 119°15'612.1
2017-Sep-29 01:01N 33°38' W 119°08'612.0
2017-Sep-29 00:30N 33°38' W 119°00'611.9
2017-Sep-29 00:01N 33°37' W 118°53'611.8
2017-Sep-28 23:31N 33°36' W 118°47'612.0
2017-Sep-28 23:01N 33°34' W 118°40'612.0
2017-Sep-28 22:30N 33°33' W 118°33'611.5
2017-Sep-28 22:01N 33°33' W 118°26'611.2
2017-Sep-28 21:31N 33°34' W 118°19'4 8.8
2017-Sep-28 21:00N 33°37' W 118°15'4 7.7
2017-Sep-28 20:31N 33°40' W 118°12'4 7.1
2017-Sep-28 20:01N 33°43' W 118°11'3 5.0
2017-Sep-28 19:30N 33°45' W 118°13'0 0.9
2017-Sep-28 19:01N 33°45' W 118°13'0 0.0
2017-Sep-28 18:31N 33°45' W 118°13'0 0.0
2017-Sep-28 17:55N 33°45' W 118°13'0 0.0
2017-Sep-28 17:28N 33°45' W 118°13'0 0.0
2017-Sep-28 16:58N 33°45' W 118°13'0 0.0
2017-Sep-28 16:25N 33°45' W 118°13'0 0.0
2017-Sep-28 15:58N 33°45' W 118°13'0 0.0
2017-Sep-28 15:28N 33°45' W 118°13'0 0.0
2017-Sep-28 14:55N 33°45' W 118°13'0 0.0
2017-Sep-28 14:22N 33°45' W 118°13'0 0.0
2017-Sep-28 13:58N 33°45' W 118°13'0 0.0
2017-Sep-28 13:25N 33°45' W 118°13'0 0.0
2017-Sep-28 12:58N 33°45' W 118°13'0 0.0
2017-Sep-28 12:28N 33°45' W 118°13'0 0.0
2017-Sep-28 11:58N 33°45' W 118°13'0 0.0
2017-Sep-28 11:28N 33°45' W 118°13'0 0.0
2017-Sep-28 10:55N 33°45' W 118°13'0 0.0
2017-Sep-28 10:28N 33°45' W 118°13'0 0.0
2017-Sep-28 09:58N 33°45' W 118°13'0 0.0
2017-Sep-28 09:28N 33°45' W 118°13'0 0.0
2017-Sep-28 08:55N 33°45' W 118°13'0 0.0
2017-Sep-28 08:28N 33°45' W 118°13'0 0.0
2017-Sep-28 07:58N 33°45' W 118°13'0 0.0
2017-Sep-28 07:28N 33°45' W 118°13'0 0.0
2017-Sep-28 06:55N 33°45' W 118°13'0 0.0
2017-Sep-28 06:28N 33°45' W 118°13'0 0.0
2017-Sep-28 05:49N 33°45' W 118°13'0 0.0
2017-Sep-28 05:22N 33°45' W 118°13'0 0.0
2017-Sep-28 04:37N 33°45' W 118°13'0 0.0
2017-Sep-28 04:28N 33°45' W 118°13'0 0.0
2017-Sep-28 03:58N 33°45' W 118°13'0 0.0
2017-Sep-28 03:19N 33°45' W 118°13'0 0.0
2017-Sep-28 02:55N 33°45' W 118°13'0 0.0
2017-Sep-28 02:19N 33°45' W 118°13'0 0.0
2017-Sep-28 01:55N 33°45' W 118°13'0 0.0
2017-Sep-28 01:25N 33°45' W 118°13'0 0.0
2017-Sep-28 00:55N 33°45' W 118°13'0 0.0
2017-Sep-28 00:25N 33°45' W 118°13'0 0.0
2017-Sep-27 23:55N 33°45' W 118°13'0 0.0
2017-Sep-27 23:13N 33°45' W 118°13'0 0.0
2017-Sep-27 22:55N 33°45' W 118°13'0 0.0
2017-Sep-27 22:19N 33°45' W 118°13'0 0.0
2017-Sep-27 22:00N 33°45' W 118°13'1 1.0
2017-Sep-27 21:30N 33°45' W 118°13'2 4.6
2017-Sep-27 21:00N 33°43' W 118°11'3 6.1
2017-Sep-27 20:30N 33°41' W 118°09'2 3.5
2017-Sep-27 20:00N 33°41' W 118°07'0 0.2
2017-Sep-27 19:28N 33°41' W 118°07'0 0.1
2017-Sep-27 18:55N 33°41' W 118°07'0 0.0
2017-Sep-27 18:28N 33°41' W 118°07'0 0.0
2017-Sep-27 17:58N 33°41' W 118°07'0 0.0
2017-Sep-27 17:28N 33°41' W 118°07'0 0.0
2017-Sep-27 16:58N 33°41' W 118°07'0 0.0
2017-Sep-27 16:25N 33°41' W 118°07'0 0.1
2017-Sep-27 15:43N 33°41' W 118°07'0 0.0
2017-Sep-27 15:28N 33°41' W 118°07'0 0.0
2017-Sep-27 14:58N 33°41' W 118°07'0 0.0
2017-Sep-27 14:28N 33°41' W 118°07'0 0.0
2017-Sep-27 13:58N 33°41' W 118°07'0 0.0
2017-Sep-27 13:28N 33°41' W 118°07'0 0.0
2017-Sep-27 12:58N 33°41' W 118°07'0 0.0
2017-Sep-27 12:28N 33°41' W 118°07'0 0.0
2017-Sep-27 11:58N 33°41' W 118°07'0 0.1
2017-Sep-27 11:28N 33°41' W 118°07'0 0.1
2017-Sep-27 10:58N 33°41' W 118°07'0 0.0
2017-Sep-27 10:28N 33°41' W 118°07'0 0.0
2017-Sep-27 09:58N 33°41' W 118°07'0 0.0
2017-Sep-27 09:28N 33°41' W 118°07'0 0.0
2017-Sep-27 08:58N 33°41' W 118°07'0 0.0
2017-Sep-27 08:28N 33°41' W 118°07'0 0.0
2017-Sep-27 07:58N 33°41' W 118°07'0 0.0
2017-Sep-27 07:25N 33°41' W 118°07'0 0.0
2017-Sep-27 06:58N 33°41' W 118°07'0 0.0
2017-Sep-27 06:28N 33°41' W 118°07'0 0.0
2017-Sep-27 05:58N 33°41' W 118°07'0 0.0
2017-Sep-27 05:28N 33°41' W 118°07'0 0.0
2017-Sep-27 04:58N 33°41' W 118°07'0 0.0
2017-Sep-27 04:28N 33°41' W 118°07'0 0.1
2017-Sep-27 03:58N 33°41' W 118°07'0 0.0
2017-Sep-27 03:28N 33°41' W 118°07'0 0.0
2017-Sep-27 02:58N 33°41' W 118°07'0 0.1
2017-Sep-27 02:28N 33°41' W 118°07'0 0.0
2017-Sep-27 01:58N 33°41' W 118°07'0 0.1
2017-Sep-27 01:25N 33°41' W 118°07'0 0.1
2017-Sep-27 00:58N 33°41' W 118°07'0 0.0
2017-Sep-27 00:28N 33°41' W 118°07'0 0.0
2017-Sep-26 23:58N 33°41' W 118°07'0 0.0
2017-Sep-26 23:28N 33°41' W 118°07'0 0.1
2017-Sep-26 22:58N 33°41' W 118°07'0 0.1
2017-Sep-26 22:22N 33°41' W 118°07'0 0.0
2017-Sep-26 21:58N 33°41' W 118°07'0 0.0
2017-Sep-26 21:28N 33°41' W 118°07'0 0.1
2017-Sep-26 20:58N 33°41' W 118°07'0 0.0
2017-Sep-26 20:25N 33°41' W 118°07'0 0.0
2017-Sep-26 19:58N 33°41' W 118°07'0 0.0
2017-Sep-26 19:28N 33°41' W 118°07'0 0.1
2017-Sep-26 18:55N 33°41' W 118°07'0 0.0
2017-Sep-26 18:28N 33°41' W 118°07'0 0.0
2017-Sep-26 17:58N 33°41' W 118°07'0 0.0
2017-Sep-26 17:28N 33°41' W 118°07'0 0.0
2017-Sep-26 16:58N 33°41' W 118°07'0 0.0
2017-Sep-26 16:28N 33°41' W 118°07'0 0.0
2017-Sep-26 15:58N 33°41' W 118°07'0 0.0
2017-Sep-26 15:28N 33°41' W 118°07'0 0.0
2017-Sep-26 14:58N 33°41' W 118°07'0 0.0
2017-Sep-26 14:28N 33°41' W 118°07'0 0.0
2017-Sep-26 13:58N 33°41' W 118°07'0 0.0
2017-Sep-26 13:22N 33°41' W 118°07'  

Dump ship's entire track history